createdAt,value
2018-05-23T00:02:08.233Z,19.31
2018-05-23T00:04:36.354Z,19.29
2018-05-23T00:07:04.556Z,19.17
2018-05-23T00:09:32.624Z,19.22
2018-05-23T00:12:00.761Z,19.15
2018-05-23T00:14:29.656Z,19.12
2018-05-23T00:16:57.749Z,19.17
2018-05-23T00:19:25.860Z,18.96
2018-05-23T00:21:53.939Z,19.06
2018-05-23T00:24:22.035Z,18.99
2018-05-23T00:26:50.168Z,19.05
2018-05-23T00:29:18.267Z,18.82
2018-05-23T00:31:46.370Z,18.72
2018-05-23T00:34:14.493Z,18.60
2018-05-23T00:36:42.585Z,18.71
2018-05-23T00:39:10.682Z,18.82
2018-05-23T00:41:38.908Z,18.85
2018-05-23T00:44:06.935Z,18.83
2018-05-23T00:46:35.024Z,18.86
2018-05-23T00:49:03.147Z,18.93
2018-05-23T00:51:31.250Z,18.85
2018-05-23T00:53:59.348Z,18.74
2018-05-23T00:56:27.463Z,18.87
2018-05-23T00:59:01.530Z,18.86
2018-05-23T01:01:29.680Z,18.76
2018-05-23T01:03:58.008Z,18.86
2018-05-23T01:06:26.566Z,18.80
2018-05-23T01:08:55.405Z,18.85
2018-05-23T01:11:23.540Z,18.90
2018-05-23T01:13:52.132Z,18.82
2018-05-23T01:16:20.258Z,18.61
2018-05-23T01:18:48.364Z,18.65
2018-05-23T01:21:16.473Z,18.30
2018-05-23T01:23:44.600Z,18.33
2018-05-23T01:26:12.734Z,18.52
2018-05-23T01:28:41.251Z,18.68
2018-05-23T01:31:09.377Z,18.72
2018-05-23T01:33:37.483Z,18.67
2018-05-23T01:36:06.084Z,18.69
2018-05-23T01:38:34.204Z,18.59
2018-05-23T01:41:03.071Z,18.69
2018-05-23T01:43:31.176Z,18.59
2018-05-23T01:45:59.304Z,18.47
2018-05-23T01:48:27.458Z,18.56
2018-05-23T01:50:56.104Z,18.48
2018-05-23T01:53:24.210Z,18.55
2018-05-23T01:55:52.308Z,18.39
2018-05-23T01:58:20.427Z,18.59
2018-05-23T02:00:48.562Z,18.58
2018-05-23T02:03:16.667Z,18.72
2018-05-23T02:05:44.788Z,18.55
2018-05-23T02:08:12.938Z,18.61
2018-05-23T02:10:41.068Z,18.64
2018-05-23T02:13:09.165Z,18.35
2018-05-23T02:15:37.287Z,18.14
2018-05-23T02:18:05.454Z,18.09
2018-05-23T02:20:33.557Z,18.00
2018-05-23T02:23:01.657Z,17.83
2018-05-23T02:25:29.786Z,17.93
2018-05-23T02:27:57.885Z,17.93
2018-05-23T02:30:26.614Z,17.94
2018-05-23T02:32:54.761Z,17.89
2018-05-23T02:35:22.947Z,17.99
2018-05-23T02:37:51.042Z,18.09
2018-05-23T02:40:19.185Z,18.14
2018-05-23T02:42:47.328Z,18.11
2018-05-23T02:45:15.421Z,18.17
2018-05-23T02:47:43.534Z,18.36
2018-05-23T02:50:12.132Z,18.49
2018-05-23T02:52:40.269Z,18.57
2018-05-23T02:55:08.383Z,18.54
2018-05-23T02:57:36.496Z,18.45
2018-05-23T03:00:04.602Z,18.48
2018-05-23T03:02:32.711Z,18.48
2018-05-23T03:05:00.888Z,18.41
2018-05-23T03:07:29.007Z,18.43
2018-05-23T03:09:57.160Z,18.41
2018-05-23T03:12:25.291Z,18.46
2018-05-23T03:14:53.399Z,18.50
2018-05-23T03:17:21.506Z,18.45
2018-05-23T03:19:49.629Z,18.44
2018-05-23T03:22:17.735Z,18.51
2018-05-23T03:24:45.835Z,18.41
2018-05-23T03:27:14.002Z,18.27
2018-05-23T03:29:42.132Z,18.25
2018-05-23T03:32:10.948Z,18.13
2018-05-23T03:34:39.052Z,18.13
2018-05-23T03:37:07.638Z,18.06
2018-05-23T03:39:35.760Z,18.21
2018-05-23T03:42:03.870Z,18.20
2018-05-23T03:44:31.983Z,18.13
2018-05-23T03:47:00.344Z,18.07
2018-05-23T03:49:28.436Z,18.01
2018-05-23T03:51:56.536Z,18.16
2018-05-23T03:54:24.660Z,18.24
2018-05-23T03:56:52.750Z,18.31
2018-05-23T04:02:36.921Z,18.21
2018-05-23T04:08:07.332Z,18.24
2018-05-23T04:10:35.441Z,18.37
2018-05-23T04:13:03.544Z,18.39
2018-05-23T04:15:32.714Z,18.36
2018-05-23T04:18:00.739Z,18.40
2018-05-23T04:20:28.857Z,18.24
2018-05-23T04:22:56.980Z,18.13
2018-05-23T04:25:25.101Z,18.11
2018-05-23T04:27:53.206Z,18.08
2018-05-23T04:30:21.330Z,18.22
2018-05-23T04:32:50.361Z,18.14
2018-05-23T04:35:18.476Z,17.86
2018-05-23T04:37:46.570Z,17.66
2018-05-23T04:40:14.684Z,17.79
2018-05-23T04:42:42.781Z,17.61
2018-05-23T04:45:10.891Z,17.65
2018-05-23T04:47:40.009Z,17.61
2018-05-23T04:50:13.719Z,17.51
2018-05-23T04:52:41.847Z,17.56
2018-05-23T04:55:10.321Z,17.65
2018-05-23T05:10:39.398Z,17.44
2018-05-23T05:13:07.541Z,17.50
2018-05-23T05:15:35.659Z,17.67
2018-05-23T05:18:03.800Z,17.67
2018-05-23T05:20:37.376Z,17.64
2018-05-23T05:23:05.489Z,17.75
2018-05-23T05:25:33.589Z,17.72
2018-05-23T05:28:01.715Z,17.75
2018-05-23T05:30:29.856Z,17.78
2018-05-23T05:32:57.961Z,17.88
2018-05-23T05:35:26.293Z,17.84
2018-05-23T05:37:54.425Z,17.65
2018-05-23T05:40:22.584Z,17.74
2018-05-23T05:42:56.357Z,17.87
2018-05-23T05:45:30.037Z,18.01
2018-05-23T05:47:58.155Z,18.07
2018-05-23T05:50:26.589Z,17.93
2018-05-23T05:52:54.661Z,17.81
2018-05-23T05:55:23.057Z,17.79
2018-05-23T05:57:51.156Z,17.91
2018-05-23T06:00:19.256Z,17.90
2018-05-23T06:02:47.804Z,17.90
2018-05-23T06:05:15.919Z,17.95
2018-05-23T06:07:44.589Z,18.02
2018-05-23T06:10:13.737Z,17.85
2018-05-23T06:12:41.853Z,18.07
2018-05-23T06:15:09.988Z,18.05
2018-05-23T06:17:38.112Z,18.13
2018-05-23T06:20:06.214Z,18.18
2018-05-23T06:22:34.321Z,17.85
2018-05-23T06:25:02.433Z,17.90
2018-05-23T06:27:31.603Z,17.83
2018-05-23T06:30:00.289Z,17.84
2018-05-23T06:32:28.874Z,17.79
2018-05-23T06:34:56.977Z,17.85
2018-05-23T06:37:25.078Z,17.68
2018-05-23T06:39:53.213Z,17.55
2018-05-23T06:42:21.373Z,17.68
2018-05-23T06:44:49.477Z,17.65
2018-05-23T06:47:18.102Z,17.51
2018-05-23T06:49:46.800Z,17.75
2018-05-23T06:52:14.917Z,17.77
2018-05-23T06:54:43.701Z,17.65
2018-05-23T06:57:11.821Z,17.66
2018-05-23T06:59:39.939Z,17.72
2018-05-23T07:02:08.045Z,17.78
2018-05-23T07:04:36.784Z,17.80
2018-05-23T07:07:04.889Z,17.70
2018-05-23T07:09:32.993Z,17.90
2018-05-23T07:12:01.109Z,17.97
2018-05-23T07:14:29.233Z,17.98
2018-05-23T07:16:57.376Z,17.87
2018-05-23T07:19:25.567Z,17.88
2018-05-23T07:21:53.633Z,17.87
2018-05-23T07:24:21.769Z,17.76
2018-05-23T07:26:50.263Z,17.78
2018-05-23T07:29:18.353Z,17.81
2018-05-23T07:31:46.577Z,17.98
2018-05-23T07:34:14.586Z,18.05
2018-05-23T07:36:42.691Z,18.00
2018-05-23T07:39:11.797Z,18.03
2018-05-23T07:41:39.904Z,18.13
2018-05-23T07:44:08.799Z,17.95
2018-05-23T07:46:36.970Z,17.98
2018-05-23T07:49:05.007Z,18.01
2018-05-23T07:51:33.861Z,18.07
2018-05-23T07:54:02.000Z,18.10
2018-05-23T07:56:30.308Z,18.20
2018-05-23T07:58:58.423Z,18.22
2018-05-23T08:01:27.005Z,18.24
2018-05-23T08:03:55.894Z,18.19
2018-05-23T08:06:24.001Z,18.30
2018-05-23T08:08:52.127Z,18.35
2018-05-23T08:11:20.339Z,18.48
2018-05-23T08:13:49.258Z,18.60
2018-05-23T08:16:17.354Z,18.72
2018-05-23T08:18:45.468Z,18.88
2018-05-23T08:21:19.277Z,18.84
2018-05-23T08:23:47.364Z,18.80
2018-05-23T08:26:15.464Z,18.82
2018-05-23T08:28:43.591Z,18.97
2018-05-23T08:31:11.696Z,19.01
2018-05-23T08:33:39.820Z,19.06
2018-05-23T08:36:07.946Z,19.07
2018-05-23T08:38:36.095Z,19.18
2018-05-23T08:41:04.247Z,19.25
2018-05-23T08:43:32.332Z,19.11
2018-05-23T08:46:00.469Z,19.15
2018-05-23T08:48:29.497Z,19.10
2018-05-23T08:50:57.625Z,19.12
2018-05-23T08:53:26.346Z,19.19
2018-05-23T08:55:55.191Z,19.12
2018-05-23T08:58:23.306Z,19.22
2018-05-23T09:00:57.091Z,19.22
2018-05-23T09:03:31.113Z,19.24
2018-05-23T09:06:04.758Z,19.33
2018-05-23T09:08:32.892Z,19.35
2018-05-23T09:11:00.992Z,19.40
2018-05-23T09:13:29.428Z,19.40
2018-05-23T09:15:58.172Z,19.53
2018-05-23T09:18:26.265Z,19.56
2018-05-23T09:20:54.663Z,19.48
2018-05-23T09:23:23.699Z,19.36
2018-05-23T09:25:51.828Z,19.37
2018-05-23T09:28:19.922Z,19.42
2018-05-23T09:30:48.095Z,19.43
2018-05-23T09:33:17.181Z,19.48
2018-05-23T09:35:45.345Z,19.41
2018-05-23T09:38:13.461Z,19.43
2018-05-23T09:40:41.705Z,19.47
2018-05-23T09:43:09.863Z,19.43
2018-05-23T09:45:37.949Z,19.34
2018-05-23T09:48:06.047Z,19.28
2018-05-23T09:50:34.157Z,19.40
2018-05-23T09:53:02.308Z,19.41
2018-05-23T09:55:30.435Z,19.49
2018-05-23T09:57:59.385Z,19.51
2018-05-23T10:00:32.439Z,19.53
2018-05-23T10:03:00.583Z,19.38
2018-05-23T10:05:28.664Z,19.24
2018-05-23T10:07:56.775Z,19.17
2018-05-23T10:10:24.889Z,19.24
2018-05-23T10:12:52.992Z,19.25
2018-05-23T10:15:21.135Z,19.11
2018-05-23T10:17:49.323Z,19.17
2018-05-23T10:20:17.415Z,19.26
2018-05-23T10:22:45.537Z,19.25
2018-05-23T10:25:13.640Z,19.33
2018-05-23T10:27:41.744Z,19.34
2018-05-23T10:30:10.092Z,19.36
2018-05-23T10:32:38.169Z,19.40
2018-05-23T10:35:06.276Z,19.43
2018-05-23T10:37:34.400Z,19.46
2018-05-23T10:40:02.837Z,19.49
2018-05-23T10:42:30.955Z,19.48
2018-05-23T10:44:59.066Z,19.47
2018-05-23T10:47:27.171Z,19.45
2018-05-23T10:50:00.945Z,19.44
2018-05-23T10:52:29.354Z,19.29
2018-05-23T10:54:57.452Z,19.19
2018-05-23T10:57:25.552Z,19.20
2018-05-23T10:59:53.673Z,19.20
2018-05-23T11:02:21.755Z,19.19
2018-05-23T11:04:50.189Z,19.21
2018-05-23T11:07:18.318Z,19.25
2018-05-23T11:09:46.416Z,19.29
2018-05-23T11:12:15.146Z,19.31
2018-05-23T11:14:43.586Z,19.39
2018-05-23T11:17:11.609Z,19.43
2018-05-23T11:19:39.760Z,19.55
2018-05-23T11:22:07.874Z,19.67
2018-05-23T11:24:35.956Z,19.72
2018-05-23T11:27:04.168Z,19.82
2018-05-23T11:29:32.273Z,19.94
2018-05-23T11:32:00.377Z,20.10
2018-05-23T11:34:28.790Z,20.15
2018-05-23T11:36:56.901Z,20.22
2018-05-23T11:39:25.002Z,20.39
2018-05-23T11:41:58.756Z,20.45
2018-05-23T11:44:27.644Z,20.53
2018-05-23T11:46:55.756Z,20.56
2018-05-23T11:49:23.860Z,20.61
2018-05-23T11:51:52.936Z,20.68
2018-05-23T11:54:21.044Z,20.76
2018-05-23T11:56:49.492Z,20.84
2018-05-23T11:59:17.616Z,20.91
2018-05-23T12:01:45.744Z,20.95
2018-05-23T12:04:13.869Z,20.99
2018-05-23T12:06:41.970Z,21.04
2018-05-23T12:09:10.142Z,21.11
2018-05-23T12:11:38.256Z,21.16
2018-05-23T12:14:06.410Z,21.23
2018-05-23T12:16:35.210Z,21.24
2018-05-23T12:19:03.330Z,21.24
2018-05-23T12:21:31.438Z,21.25
2018-05-23T12:23:59.541Z,21.28
2018-05-23T12:26:27.672Z,21.33
2018-05-23T12:28:56.585Z,21.38
2018-05-23T12:31:24.700Z,21.42
2018-05-23T12:33:53.292Z,21.41
2018-05-23T12:36:21.436Z,21.44
2018-05-23T12:38:49.600Z,21.40
2018-05-23T12:41:17.698Z,21.40
2018-05-23T12:43:45.806Z,21.42
2018-05-23T12:46:13.912Z,21.45
2018-05-23T12:48:42.020Z,21.48
2018-05-23T12:51:10.114Z,21.50
2018-05-23T12:53:38.236Z,21.46
2018-05-23T12:56:06.354Z,21.47
2018-05-23T12:58:34.469Z,21.45
2018-05-23T13:01:02.920Z,21.50
2018-05-23T13:03:31.135Z,21.52
2018-05-23T13:05:59.683Z,21.52
2018-05-23T13:08:27.841Z,21.53
2018-05-23T13:10:55.956Z,21.49
2018-05-23T13:13:24.055Z,21.50
2018-05-23T13:15:52.276Z,21.53
2018-05-23T13:18:20.370Z,21.54
2018-05-23T13:20:48.481Z,21.61
2018-05-23T13:23:16.596Z,21.73
2018-05-23T13:25:44.701Z,21.69
2018-05-23T13:28:13.450Z,21.63
2018-05-23T13:30:41.569Z,21.62
2018-05-23T13:33:10.232Z,21.65
2018-05-23T13:48:44.113Z,21.89
2018-05-23T13:51:17.790Z,21.97
2018-05-23T13:53:45.930Z,22.02
2018-05-23T13:56:14.800Z,22.03
2018-05-23T13:58:42.930Z,22.11
2018-05-23T14:01:11.072Z,22.26
2018-05-23T14:03:39.200Z,22.32
2018-05-23T14:06:07.309Z,22.33
2018-05-23T14:08:35.444Z,22.39
2018-05-23T14:11:03.592Z,22.44
2018-05-23T14:13:31.762Z,22.49
2018-05-23T14:15:59.874Z,22.58
2018-05-23T14:18:28.013Z,22.61
2018-05-23T14:20:56.094Z,22.70
2018-05-23T14:23:24.216Z,22.78
2018-05-23T14:25:52.378Z,22.76
2018-05-23T14:28:20.528Z,22.75
2018-05-23T14:30:48.616Z,22.73
2018-05-23T14:33:16.737Z,22.67
2018-05-23T14:35:44.931Z,22.68
2018-05-23T14:38:13.320Z,22.67
2018-05-23T14:40:42.236Z,22.70
2018-05-23T14:43:10.341Z,22.76
2018-05-23T14:45:38.437Z,22.72
2018-05-23T14:48:06.543Z,22.66
2018-05-23T14:50:34.655Z,22.65
2018-05-23T14:53:02.827Z,22.64
2018-05-23T14:55:30.947Z,22.67
2018-05-23T14:57:59.378Z,22.75
2018-05-23T15:00:27.496Z,22.80
2018-05-23T15:02:55.608Z,22.80
2018-05-23T15:05:23.715Z,22.84
2018-05-23T15:07:51.825Z,22.96
2018-05-23T15:10:19.957Z,22.93
2018-05-23T15:12:48.077Z,23.08
2018-05-23T15:15:16.180Z,23.11
2018-05-23T15:17:44.296Z,23.13
2018-05-23T15:20:12.494Z,23.22
2018-05-23T15:22:41.188Z,23.19
2018-05-23T15:25:09.633Z,23.17
2018-05-23T15:27:38.386Z,23.17
2018-05-23T15:30:06.490Z,23.19
2018-05-23T15:32:34.603Z,23.18
2018-05-23T15:35:02.758Z,23.37
2018-05-23T15:37:30.876Z,23.39
2018-05-23T15:39:58.987Z,23.41
2018-05-23T15:42:27.100Z,23.38
2018-05-23T15:44:55.196Z,23.28
2018-05-23T15:47:24.268Z,23.28
2018-05-23T15:49:52.390Z,23.43
2018-05-23T15:52:20.493Z,23.50
2018-05-23T15:54:48.629Z,23.53
2018-05-23T15:57:17.201Z,23.53
2018-05-23T15:59:46.047Z,23.55
2018-05-23T16:02:14.190Z,23.60
2018-05-23T16:04:42.312Z,23.59
2018-05-23T16:07:10.428Z,23.51
2018-05-23T16:09:38.612Z,23.50
2018-05-23T16:12:06.742Z,23.51
2018-05-23T16:14:34.858Z,23.56
2018-05-23T16:17:08.645Z,23.62
2018-05-23T16:19:36.751Z,23.61
2018-05-23T16:22:04.857Z,23.65
2018-05-23T16:24:33.115Z,23.59
2018-05-23T16:27:01.210Z,23.53
2018-05-23T16:29:35.160Z,23.49
2018-05-23T16:32:03.276Z,23.48
2018-05-23T16:34:31.428Z,23.47
2018-05-23T16:36:59.509Z,23.47
2018-05-23T16:39:28.268Z,23.46
2018-05-23T16:41:56.915Z,23.46
2018-05-23T16:44:25.126Z,23.47
2018-05-23T16:46:53.136Z,23.42
2018-05-23T16:49:21.285Z,23.49
2018-05-23T16:51:49.718Z,23.48
2018-05-23T16:54:17.858Z,23.52
2018-05-23T16:56:45.957Z,23.52
2018-05-23T16:59:14.061Z,23.58
2018-05-23T17:01:42.201Z,23.58
2018-05-23T17:04:10.700Z,23.59
2018-05-23T17:06:38.809Z,23.62
2018-05-23T17:09:07.579Z,23.63
2018-05-23T17:11:35.698Z,23.56
2018-05-23T17:14:03.821Z,23.57
2018-05-23T17:16:31.952Z,23.56
2018-05-23T17:19:00.064Z,23.52
2018-05-23T17:21:28.173Z,23.53
2018-05-23T17:23:56.321Z,23.50
2018-05-23T17:26:25.414Z,23.49
2018-05-23T17:28:53.526Z,23.48
2018-05-23T17:31:21.649Z,23.46
2018-05-23T17:33:49.744Z,23.46
2018-05-23T17:36:17.865Z,23.47
2018-05-23T17:38:45.974Z,23.48
2018-05-23T17:41:19.630Z,23.49
2018-05-23T17:43:47.772Z,23.46
2018-05-23T17:46:15.869Z,23.46
2018-05-23T18:01:44.015Z,23.28
2018-05-23T18:04:12.413Z,23.23
2018-05-23T18:06:40.538Z,23.18
2018-05-23T18:09:08.638Z,23.17
2018-05-23T18:11:36.876Z,23.17
2018-05-23T18:14:05.002Z,23.16
2018-05-23T18:16:33.140Z,23.20
2018-05-23T18:19:01.270Z,23.20
2018-05-23T18:21:29.371Z,23.22
2018-05-23T18:23:57.500Z,23.22
2018-05-23T18:26:25.688Z,23.19
2018-05-23T18:28:53.788Z,23.19
2018-05-23T18:31:21.896Z,23.19
2018-05-23T18:33:50.029Z,23.18
2018-05-23T18:36:18.450Z,23.17
2018-05-23T18:38:46.564Z,23.18
2018-05-23T18:41:14.688Z,23.19
2018-05-23T18:43:42.819Z,23.17
2018-05-23T18:46:10.932Z,23.16
2018-05-23T18:48:39.044Z,23.18
2018-05-23T18:51:07.157Z,23.16
2018-05-23T18:53:35.273Z,23.16
2018-05-23T18:56:03.365Z,23.13
2018-05-23T18:58:31.481Z,23.09
2018-05-23T19:01:00.082Z,23.08
2018-05-23T19:03:28.173Z,23.08
2018-05-23T19:05:56.289Z,23.04
2018-05-23T19:08:24.383Z,23.01
2018-05-23T19:10:52.536Z,23.00
2018-05-23T19:13:20.641Z,22.98
2018-05-23T19:28:53.855Z,22.76
2018-05-23T19:31:27.413Z,22.74
2018-05-23T19:33:55.777Z,22.74
2018-05-23T19:36:23.918Z,22.71
2018-05-23T19:38:52.032Z,22.69
2018-05-23T19:54:20.161Z,22.47
2018-05-23T19:56:48.259Z,22.47
2018-05-23T19:59:16.462Z,22.50
2018-05-23T20:01:44.578Z,22.49
2018-05-23T20:04:12.700Z,22.46
2018-05-23T20:06:40.802Z,22.43
2018-05-23T20:09:09.690Z,22.42
2018-05-23T20:11:37.785Z,22.42
2018-05-23T20:14:05.976Z,22.40
2018-05-23T20:16:34.026Z,22.38
2018-05-23T20:19:02.153Z,22.33
2018-05-23T20:21:30.309Z,22.31
2018-05-23T20:23:58.481Z,22.28
2018-05-23T20:26:26.552Z,22.29
2018-05-23T20:28:55.582Z,22.29
2018-05-23T20:31:24.440Z,22.25
2018-05-23T20:33:53.319Z,22.24
2018-05-23T20:36:21.454Z,22.22
2018-05-23T20:38:49.540Z,22.19
2018-05-23T20:41:17.644Z,22.17
2018-05-23T20:43:46.921Z,22.14
2018-05-23T20:46:15.061Z,22.12
2018-05-23T20:48:43.191Z,22.09
2018-05-23T20:51:11.312Z,22.05
2018-05-23T20:53:39.409Z,22.04
2018-05-23T20:56:07.498Z,22.01
2018-05-23T20:58:35.746Z,21.98
2018-05-23T21:01:04.145Z,21.95
2018-05-23T21:03:32.957Z,21.93
2018-05-23T21:06:01.081Z,21.86
2018-05-23T21:08:29.686Z,21.89
2018-05-23T21:10:58.150Z,21.83
2018-05-23T21:13:26.251Z,21.88
2018-05-23T21:15:54.340Z,21.83
2018-05-23T21:18:23.077Z,21.79
2018-05-23T21:20:51.174Z,21.75
2018-05-23T21:23:20.320Z,21.76
2018-05-23T21:25:48.433Z,21.77
2018-05-23T21:28:16.895Z,21.75
2018-05-23T21:30:45.008Z,21.72
2018-05-23T21:33:13.093Z,21.71
2018-05-23T21:35:41.201Z,21.71
2018-05-23T21:38:09.293Z,21.69
2018-05-23T21:40:37.377Z,21.71
2018-05-23T21:56:05.501Z,21.40
2018-05-23T21:58:33.608Z,21.43
2018-05-23T22:01:03.093Z,21.38
2018-05-23T22:03:37.261Z,21.29
2018-05-23T22:06:10.726Z,21.33
2018-05-23T22:08:38.851Z,21.30
2018-05-23T22:13:41.327Z,21.31
2018-05-23T22:16:09.561Z,21.27
2018-05-23T22:18:37.656Z,21.28
2018-05-23T22:21:05.767Z,21.24
2018-05-23T22:23:33.881Z,21.28
2018-05-23T22:26:01.961Z,21.24
2018-05-23T22:28:30.049Z,21.25
2018-05-23T22:30:58.171Z,21.24
2018-05-23T22:33:26.278Z,21.24
2018-05-23T22:35:54.456Z,21.22
2018-05-23T22:38:22.472Z,21.18
2018-05-23T22:40:50.571Z,21.14
2018-05-23T22:43:18.668Z,21.09
2018-05-23T22:45:46.773Z,21.09
2018-05-23T22:48:15.222Z,21.00
2018-05-23T22:50:44.320Z,20.97
2018-05-23T22:53:12.429Z,20.99
2018-05-23T22:55:40.525Z,20.88
2018-05-23T22:58:08.634Z,20.96
2018-05-23T23:00:36.740Z,20.95
2018-05-23T23:03:04.842Z,20.92
2018-05-23T23:05:32.934Z,20.86
2018-05-23T23:08:01.036Z,20.85
2018-05-23T23:10:29.192Z,20.82
2018-05-23T23:12:57.276Z,20.80
2018-05-23T23:15:25.367Z,20.79
2018-05-23T23:17:53.468Z,20.62
2018-05-23T23:20:21.571Z,20.56
2018-05-23T23:22:49.690Z,20.58
2018-05-23T23:25:17.809Z,20.44
2018-05-23T23:27:45.936Z,20.49
2018-05-23T23:30:14.002Z,20.45
2018-05-23T23:32:42.154Z,20.51
2018-05-23T23:35:10.240Z,20.37
2018-05-23T23:37:38.344Z,20.39
2018-05-23T23:40:06.436Z,20.43
2018-05-23T23:42:34.560Z,20.50
2018-05-23T23:45:02.714Z,20.49
2018-05-23T23:47:30.908Z,20.43
2018-05-23T23:49:58.917Z,20.35
2018-05-23T23:52:27.016Z,20.33
2018-05-23T23:54:55.099Z,20.16
2018-05-23T23:57:23.222Z,20.22
2018-05-23T23:59:51.312Z,20.22
